Aylmer, Canada
Current Conditions -  °F | °C
As of 2:00 AM on Friday 19 Dec 2014 (Local Time) from CYOW Reporting Station
Overcast Overcast  
Wind Chill:   Ceiling: 1700
Heat Index: 21°   Visibility: 15mi
Dew Point: 18°   Wind: 12mph
Humidity: 86%   Direction: 320°NW
Pressure: 30.02"   Gusts: NA
Location:  45.4°N, 75.85°W
Report Text: CYOW 190700Z 32010KT 15SM FEW013 OVC017 M06/M08 A3002 RMK SC2SC6 SHSN NW SLP173
Loading
Personal Weather Stations






























Interactive Weather Map New forecast layout! Learn more

10-Day Weather Forecast

Advertisements
Track Severe Weather on mobile